Main page
METAR-TAF:

METAR-TAF

Airports :

Lleida-Alguaire

Lleida, Spain

latitude: 41-43-40N, longitude: 000-32-09E, elevation: 350 m

Current weather observation

The report was made 36 minutes ago, at 22:00 UTC
Wind 11 kt from the West
Temperature 22°C
Humidity 50%
Pressure 1020 hPa
Visibility 10 km or more

METAR: LEDA 212200Z AUTO 27011KT 9999 NCD 22/11 Q1020

Time: 00:36 (22:36 UTC)

Forecast

The report was made 20 hours and 36 minutes ago, at 02:00 UTC
Forecast valid from 21 at 03 UTC to 22 at 03 UTC
Wind 6 kt from the Northeast
Visibility 10 km or more
Few clouds at a height of 3000 ft
Becoming
from 21 at 12 UTC to 21 at 14 UTC
Wind 10 kt from the West
Becoming
from 21 at 20 UTC to 21 at 22 UTC
Wind 6 kt from the Southwest

TAF: LEDA 210200Z 2103/2203 05006KT 9999 FEW030 TX30/2113Z TN16/2105Z BECMG 2112/2114 27010KT BECMG 2120/2122 23006KT

Weather observations and forecasts of more than 4000 airports (METAR and TAF reports).

The available stations are represented by yellow and red dots on the map.

Hover mouse over dot to see the name of the station.

Then click to see weather observations and forecasts.

To change the map : click on the green buttons with a black cross to zoom in, on the green button with a dash to zoom out, or on the green arrows for adjacent maps.


METAR-TAF: